Time;durP1;ratioP1;P1;durP2;ratioP2;P2;SDS_P1;SDS_P2;PMS_P1;PMS_P2;Temp;Humidity;BMP_temperature;BMP_pressure;BME280_temperature;BME280_humidity;BME280_pressure;Samples;Min_cycle;Max_cycle;Signal;HPM_P1;HPM_P2
2022/03/29 00:01:28;;;;;;;17.08;8.90;;;8.90;31.30;;;;;;5077640;28;20204;-88
2022/03/29 00:03:55;;;;;;;12.45;9.07;;;8.90;31.40;;;;;;5042470;28;20296;-87
2022/03/29 00:06:24;;;;;;;16.80;9.68;;;8.80;31.50;;;;;;5068220;28;20285;-88
2022/03/29 00:08:52;;;;;;;16.50;9.35;;;8.80;33.10;;;;;;5069050;28;20256;-87
2022/03/29 00:11:22;;;;;;;15.05;9.45;;;8.70;32.10;;;;;;5059447;28;20200;-86
2022/03/29 00:13:50;;;;;;;12.95;9.05;;;8.70;33.80;;;;;;5053430;28;20230;-86
2022/03/29 00:16:20;;;;;;;13.57;9.30;;;8.70;34.10;;;;;;5044013;28;20198;-87
2022/03/29 00:18:48;;;;;;;14.57;9.70;;;8.70;33.10;;;;;;5070229;28;20280;-87
2022/03/29 00:21:15;;;;;;;13.38;9.38;;;8.60;33.50;;;;;;5071888;28;20270;-86
2022/03/29 00:23:44;;;;;;;14.90;9.02;;;8.60;34.70;;;;;;5075013;28;20225;-86
2022/03/29 00:26:11;;;;;;;11.65;8.55;;;8.50;34.70;;;;;;5068302;28;20301;-87
2022/03/29 00:28:39;;;;;;;14.88;8.93;;;8.50;34.50;;;;;;5076532;28;20248;-87
2022/03/29 00:31:07;;;;;;;12.30;8.90;;;8.40;35.00;;;;;;5050966;28;20204;-87
2022/03/29 00:33:34;;;;;;;13.83;9.20;;;8.40;35.00;;;;;;5055471;28;20194;-87
2022/03/29 00:36:03;;;;;;;13.77;9.50;;;8.40;35.90;;;;;;5068295;28;20194;-86
2022/03/29 00:38:31;;;;;;;12.52;9.05;;;8.30;37.40;;;;;;5067659;28;20241;-87
2022/03/29 00:41:01;;;;;;;14.27;9.23;;;8.30;37.40;;;;;;5052982;28;20205;-87
2022/03/29 00:43:28;;;;;;;13.38;9.05;;;8.30;36.70;;;;;;5067155;28;20229;-87
2022/03/29 00:45:55;;;;;;;15.33;9.33;;;8.20;36.90;;;;;;5066708;28;20262;-87
2022/03/29 00:48:23;;;;;;;12.52;9.15;;;8.20;37.90;;;;;;5064333;28;20214;-87
2022/03/29 00:50:52;;;;;;;15.15;9.20;;;8.20;37.90;;;;;;5054023;28;20581;-87
2022/03/29 00:53:20;;;;;;;13.50;9.47;;;8.10;37.90;;;;;;5070106;28;20201;-87
2022/03/29 00:55:54;;;;;;;13.18;8.75;;;8.10;38.50;;;;;;5054770;28;20564;-86
2022/03/29 00:58:22;;;;;;;13.20;9.18;;;8.10;38.50;;;;;;5068711;28;20268;-87
2022/03/29 01:00:51;;;;;;;14.63;9.15;;;8.10;38.30;;;;;;5060829;28;20216;-86
2022/03/29 01:03:20;;;;;;;15.03;9.37;;;8.10;38.80;;;;;;5083294;28;20572;-87
2022/03/29 01:05:47;;;;;;;12.13;8.85;;;8.10;39.40;;;;;;5076548;28;20241;-86
2022/03/29 01:08:14;;;;;;;13.02;10.20;;;8.10;39.20;;;;;;5066148;28;20281;-87
2022/03/29 01:10:45;;;;;;;13.48;9.40;;;8.00;40.10;;;;;;5076373;28;20223;-86
2022/03/29 01:13:13;;;;;;;12.70;9.10;;;8.00;39.50;;;;;;5069708;28;20193;-87
2022/03/29 01:15:42;;;;;;;13.23;9.18;;;8.00;40.30;;;;;;5074981;28;20636;-87
2022/03/29 01:18:10;;;;;;;11.25;8.55;;;7.90;39.50;;;;;;5070860;28;20217;-86
2022/03/29 01:20:38;;;;;;;15.15;9.85;;;8.00;40.00;;;;;;5049073;28;20225;-87
2022/03/29 01:23:08;;;;;;;16.70;9.15;;;8.10;39.50;;;;;;5078362;28;20209;-87
2022/03/29 01:25:38;;;;;;;13.57;9.37;;;8.00;39.30;;;;;;5065713;28;20226;-87
2022/03/29 01:28:07;;;;;;;12.60;9.52;;;8.10;40.10;;;;;;5065863;28;20224;-86
2022/03/29 01:30:34;;;;;;;15.50;9.38;;;8.10;41.70;;;;;;5047177;28;20222;-87
2022/03/29 01:33:06;;;;;;;14.02;9.23;;;8.00;41.50;;;;;;5067061;28;20225;-87
2022/03/29 01:35:35;;;;;;;14.07;9.60;;;8.10;42.90;;;;;;5065670;28;20224;-87
2022/03/29 01:38:03;;;;;;;17.27;9.75;;;8.10;41.10;;;;;;5035477;28;20225;-86
2022/03/29 01:40:31;;;;;;;13.73;9.20;;;8.10;40.80;;;;;;5078053;28;20308;-87
2022/03/29 01:43:00;;;;;;;14.70;10.13;;;8.10;42.30;;;;;;5071752;28;20281;-87
2022/03/29 01:45:29;;;;;;;15.05;9.13;;;8.10;41.70;;;;;;5062035;28;20310;-86
2022/03/29 01:48:00;;;;;;;13.20;8.88;;;8.10;43.20;;;;;;5028577;28;20633;-87
2022/03/29 01:50:32;;;;;;;14.10;9.35;;;8.10;41.90;;;;;;5073799;28;20287;-87
2022/03/29 01:52:59;;;;;;;13.55;8.95;;;8.10;41.70;;;;;;5056332;28;20190;-87
2022/03/29 01:55:27;;;;;;;11.98;8.77;;;8.10;43.10;;;;;;5055326;28;20223;-86
2022/03/29 01:57:55;;;;;;;12.38;9.00;;;8.10;42.60;;;;;;5056971;28;20225;-86
2022/03/29 02:00:31;;;;;;;13.05;8.70;;;8.00;44.10;;;;;;5063412;28;20229;-87
2022/03/29 02:03:00;;;;;;;17.95;8.95;;;8.00;44.20;;;;;;5061470;28;20285;-87
2022/03/29 02:05:29;;;;;;;14.43;8.67;;;8.00;42.20;;;;;;5060409;28;20293;-87
2022/03/29 02:07:57;;;;;;;14.47;9.17;;;8.00;42.50;;;;;;5073384;28;20205;-87
2022/03/29 02:10:24;;;;;;;15.48;9.60;;;8.10;42.30;;;;;;5063260;28;20312;-87
2022/03/29 02:12:52;;;;;;;16.05;9.07;;;8.10;41.30;;;;;;5074405;28;20206;-86
2022/03/29 02:15:21;;;;;;;17.97;9.57;;;8.00;41.80;;;;;;5055241;28;20740;-86
2022/03/29 02:17:50;;;;;;;13.47;9.20;;;8.00;44.50;;;;;;5061966;28;20231;-86
2022/03/29 02:20:18;;;;;;;13.13;8.80;;;7.90;44.60;;;;;;5050143;28;20305;-87
2022/03/29 02:22:46;;;;;;;12.70;8.70;;;7.90;43.80;;;;;;5042948;28;20205;-86
2022/03/29 02:25:15;;;;;;;11.63;8.97;;;7.90;43.20;;;;;;5055746;28;20281;-87
2022/03/29 02:27:44;;;;;;;12.70;8.73;;;7.80;44.30;;;;;;5039705;28;20325;-86
2022/03/29 02:30:14;;;;;;;13.83;9.13;;;7.80;43.00;;;;;;5047296;28;20214;-88
2022/03/29 02:32:43;;;;;;;13.90;8.90;;;7.80;43.90;;;;;;5047960;28;20214;-87
2022/03/29 02:35:11;;;;;;;13.37;8.47;;;7.80;43.50;;;;;;5057008;28;20316;-87
2022/03/29 02:37:39;;;;;;;15.03;9.17;;;7.80;44.30;;;;;;5059226;28;20232;-87
2022/03/29 02:40:08;;;;;;;12.33;9.23;;;7.70;46.40;;;;;;5059756;28;20231;-86
2022/03/29 02:42:41;;;;;;;13.43;9.00;;;7.70;44.30;;;;;;5028874;28;20202;-87
2022/03/29 02:45:12;;;;;;;17.50;8.77;;;7.70;44.80;;;;;;5049042;28;20692;-87
2022/03/29 02:47:39;;;;;;;14.13;9.13;;;7.70;44.50;;;;;;5058272;28;20202;-87
2022/03/29 02:50:10;;;;;;;16.20;8.90;;;7.70;45.50;;;;;;5050974;28;20578;-87
2022/03/29 02:52:44;;;;;;;14.23;9.27;;;7.70;46.50;;;;;;5038392;28;20642;-86
2022/03/29 02:55:12;;;;;;;17.97;9.23;;;7.60;46.40;;;;;;5027780;28;20222;-86
2022/03/29 02:57:40;;;;;;;13.03;8.90;;;7.60;46.40;;;;;;5037731;28;20286;-86
2022/03/29 03:00:09;;;;;;;12.90;9.10;;;7.60;46.40;;;;;;5044322;28;20292;-86
2022/03/29 03:02:37;;;;;;;14.17;9.27;;;7.60;46.40;;;;;;5050298;28;20207;-86
2022/03/29 03:05:20;;;;;;;15.63;8.47;;;7.60;46.40;;;;;;5049126;28;20246;-87
2022/03/29 03:07:49;;;;;;;13.23;8.67;;;7.50;46.30;;;;;;5036362;28;20205;-86
2022/03/29 03:10:20;;;;;;;11.97;9.03;;;7.50;46.30;;;;;;5037238;28;20832;-87
2022/03/29 03:12:49;;;;;;;13.93;9.60;;;7.50;46.30;;;;;;5048244;28;20201;-87
2022/03/29 03:15:29;;;;;;;13.40;9.43;;;7.50;46.30;;;;;;5042925;28;20286;-87
2022/03/29 03:17:56;;;;;;;12.40;9.10;;;7.40;46.20;;;;;;5045095;28;20288;-86
2022/03/29 03:20:26;;;;;;;13.50;9.70;;;7.40;46.20;;;;;;5043975;28;20282;-87
2022/03/29 03:22:53;;;;;;;12.23;9.10;;;7.40;46.20;;;;;;5023059;28;20198;-87
2022/03/29 03:25:20;;;;;;;13.23;8.87;;;7.40;46.20;;;;;;5033744;28;20232;-87
2022/03/29 03:27:48;;;;;;;13.67;9.57;;;7.40;46.20;;;;;;5052816;28;20249;-87
2022/03/29 03:30:17;;;;;;;15.33;9.20;;;7.40;46.20;;;;;;5043534;28;20250;-86
2022/03/29 03:32:44;;;;;;;16.07;10.00;;;7.40;46.20;;;;;;5046280;28;20713;-87
2022/03/29 03:35:12;;;;;;;15.63;9.07;;;7.40;46.20;;;;;;5057891;28;20224;-87
2022/03/29 03:37:41;;;;;;;15.43;8.77;;;7.40;46.20;;;;;;5031043;28;20773;-86
2022/03/29 03:40:11;;;;;;;13.93;9.70;;;7.40;46.20;;;;;;5056334;28;20224;-87
2022/03/29 03:42:39;;;;;;;14.37;10.10;;;7.40;46.20;;;;;;5050471;28;20198;-87
2022/03/29 03:45:09;;;;;;;14.93;9.33;;;7.40;46.30;;;;;;5060483;28;20309;-87
2022/03/29 03:47:36;;;;;;;13.33;9.07;;;7.40;46.20;;;;;;5062345;28;20301;-86
2022/03/29 03:50:10;;;;;;;12.63;9.53;;;7.30;46.10;;;;;;5046918;28;20228;-86
2022/03/29 03:52:38;;;;;;;12.73;9.30;;;7.30;46.20;;;;;;5075913;28;20193;-87
2022/03/29 03:55:08;;;;;;;14.97;9.53;;;7.30;46.20;;;;;;5068639;28;20214;-86
2022/03/29 03:57:35;;;;;;;15.03;9.57;;;7.30;46.30;;;;;;5055179;28;20197;-87
2022/03/29 04:00:02;;;;;;;12.87;8.73;;;7.30;47.60;;;;;;5062660;28;20239;-86
2022/03/29 04:02:30;;;;;;;13.77;9.80;;;7.30;46.20;;;;;;5073759;28;20236;-87
2022/03/29 04:04:57;;;;;;;13.00;9.17;;;7.30;46.90;;;;;;5057842;28;20221;-86
2022/03/29 04:07:24;;;;;;;15.37;9.70;;;7.30;46.20;;;;;;5066232;28;20250;-86
2022/03/29 04:09:51;;;;;;;13.40;9.30;;;7.30;46.10;;;;;;5078190;28;20289;-86
2022/03/29 04:12:20;;;;;;;20.83;10.00;;;7.30;46.10;;;;;;5077534;28;20349;-87
2022/03/29 04:14:47;;;;;;;12.83;9.33;;;7.30;47.20;;;;;;5067036;28;20244;-86
2022/03/29 04:17:14;;;;;;;15.20;9.30;;;7.30;46.20;;;;;;5073482;28;20216;-85
2022/03/29 04:19:41;;;;;;;15.03;9.10;;;7.30;46.20;;;;;;5083725;28;20236;-86
2022/03/29 04:22:09;;;;;;;16.20;9.17;;;7.30;46.10;;;;;;5067016;28;20604;-86
2022/03/29 04:24:36;;;;;;;15.20;9.43;;;7.30;46.10;;;;;;5072001;28;20277;-87
2022/03/29 04:27:03;;;;;;;13.33;9.00;;;7.30;47.30;;;;;;5082488;28;20254;-86
2022/03/29 04:29:32;;;;;;;12.93;9.20;;;7.40;46.20;;;;;;5077788;28;20232;-86
2022/03/29 04:31:59;;;;;;;12.30;9.33;;;7.40;46.30;;;;;;5067188;28;20204;-86
2022/03/29 04:34:26;;;;;;;17.93;9.70;;;7.30;46.20;;;;;;5040476;28;20238;-86
2022/03/29 04:36:53;;;;;;;13.50;9.30;;;7.30;46.10;;;;;;5057485;28;20252;-86
2022/03/29 04:39:20;;;;;;;11.83;9.17;;;7.30;46.10;;;;;;5050002;28;20298;-87
2022/03/29 04:41:48;;;;;;;16.47;9.93;;;7.20;46.10;;;;;;5037058;28;20229;-86
2022/03/29 04:44:15;;;;;;;14.93;9.37;;;7.20;46.10;;;;;;5056612;28;20655;-87
2022/03/29 04:46:44;;;;;;;12.37;9.20;;;7.30;46.10;;;;;;5046790;28;20554;-86
2022/03/29 04:49:12;;;;;;;14.87;9.53;;;7.30;46.10;;;;;;5047696;28;20237;-86
2022/03/29 04:51:39;;;;;;;13.23;9.23;;;7.30;46.10;;;;;;5047653;28;20749;-86
2022/03/29 04:54:06;;;;;;;12.43;8.90;;;7.20;46.40;;;;;;5058050;28;20309;-87
2022/03/29 04:56:34;;;;;;;12.73;8.63;;;7.20;46.10;;;;;;5022775;28;20199;-87
2022/03/29 04:59:01;;;;;;;12.00;8.90;;;7.20;46.10;;;;;;5051729;28;20238;-86
2022/03/29 05:01:29;;;;;;;19.27;9.30;;;7.20;48.30;;;;;;5050321;28;20289;-87
2022/03/29 05:03:57;;;;;;;13.03;9.00;;;7.20;46.10;;;;;;5050462;28;20225;-88
2022/03/29 05:06:25;;;;;;;12.73;8.80;;;7.30;46.10;;;;;;5045710;28;20286;-88
2022/03/29 05:08:52;;;;;;;15.67;9.37;;;7.20;46.10;;;;;;5051448;28;20238;-88
2022/03/29 05:11:22;;;;;;;16.33;9.13;;;7.30;46.10;;;;;;5032064;28;20268;-87
2022/03/29 05:13:51;;;;;;;13.87;9.10;;;7.40;46.20;;;;;;5021532;28;20201;-88
2022/03/29 05:16:26;;;;;;;14.83;9.37;;;7.30;47.00;;;;;;5054040;28;20281;-87
2022/03/29 05:18:53;;;;;;;14.83;9.10;;;7.30;46.10;;;;;;5028435;28;20277;-86
2022/03/29 05:21:22;;;;;;;14.63;9.57;;;7.40;46.30;;;;;;5051414;28;20233;-88
2022/03/29 05:23:49;;;;;;;15.70;9.57;;;7.40;46.20;;;;;;5048056;28;20262;-88
2022/03/29 05:26:16;;;;;;;15.27;10.07;;;7.40;46.20;;;;;;5045774;28;20205;-86
2022/03/29 05:28:44;;;;;;;15.37;9.73;;;7.50;46.30;;;;;;5047714;28;20246;-87
2022/03/29 05:31:11;;;;;;;15.03;9.50;;;7.60;46.40;;;;;;5038320;28;20229;-88
2022/03/29 05:33:38;;;;;;;17.57;9.93;;;7.60;46.40;;;;;;5057847;28;20216;-87
2022/03/29 05:36:06;;;;;;;18.83;9.70;;;7.60;46.40;;;;;;5031655;28;20206;-87
2022/03/29 05:38:35;;;;;;;16.73;10.03;;;7.70;46.50;;;;;;5054535;28;20228;-87
2022/03/29 05:41:02;;;;;;;15.33;9.73;;;7.70;46.50;;;;;;5050562;28;20208;-88
2022/03/29 05:43:29;;;;;;;13.47;9.17;;;7.80;46.50;;;;;;5052314;28;20199;-87
2022/03/29 05:51:22;;;;;;;17.87;9.73;;;7.90;46.60;;;;;;5067954;28;20209;-87
2022/03/29 05:53:51;;;;;;;15.63;9.50;;;8.00;46.70;;;;;;5067330;28;20226;-87
2022/03/29 05:56:19;;;;;;;20.97;10.23;;;8.10;46.80;;;;;;5053272;28;20265;-86
2022/03/29 05:58:46;;;;;;;13.90;9.45;;;8.10;46.80;;;;;;5049461;28;20228;-87
2022/03/29 06:01:20;;;;;;;20.23;9.93;;;8.20;46.90;;;;;;5071551;28;20204;-87
2022/03/29 06:03:47;;;;;;;22.27;10.48;;;8.20;46.90;;;;;;5067601;28;20197;-87
2022/03/29 06:06:15;;;;;;;16.30;9.57;;;8.30;46.90;;;;;;5065629;28;20285;-87
2022/03/29 06:08:42;;;;;;;22.00;9.90;;;8.30;46.90;;;;;;5050713;28;20706;-86
2022/03/29 06:11:11;;;;;;;25.48;10.77;;;8.40;44.80;;;;;;5053958;28;20285;-87
2022/03/29 06:13:47;;;;;;;21.10;10.70;;;8.50;45.90;;;;;;5068314;28;20276;-87
2022/03/29 06:16:15;;;;;;;19.80;10.20;;;8.60;45.10;;;;;;5070460;28;20220;-86
2022/03/29 06:24:51;;;;;;;18.05;10.30;;;8.80;45.30;;;;;;5061818;28;20251;-87
2022/03/29 06:52:03;;;;;;;14.35;9.13;;;12.00;27.30;;;;;;5025146;28;20243;-89
2022/03/29 06:54:31;;;;;;;17.75;9.30;;;12.20;25.50;;;;;;5026714;28;20262;-87
2022/03/29 07:00:46;;;;;;;11.77;8.55;;;12.40;25.70;;;;;;5041848;28;20218;-90
2022/03/29 07:03:52;;;;;;;12.70;9.00;;;12.20;25.50;;;;;;5025674;28;20262;-88
2022/03/29 07:43:36;;;;;;;13.70;8.50;;;14.40;20.50;;;;;;4907298;29;20300;-87
2022/03/29 07:46:05;;;;;;;15.90;8.50;;;14.50;20.00;;;;;;4909774;29;20209;-87
2022/03/29 08:42:46;;;;;;;16.52;9.63;;;18.10;14.30;;;;;;4891469;29;20234;-88
2022/03/29 08:48:35;;;;;;;12.95;9.68;;;19.20;12.00;;;;;;4944507;29;20265;-88
2022/03/29 09:00:48;;;;;;;12.55;9.57;;;19.30;10.50;;;;;;5009295;28;20223;-87
2022/03/29 09:06:16;;;;;;;12.70;9.75;;;19.90;10.90;;;;;;5006695;28;20215;-87
2022/03/29 09:08:48;;;;;;;13.52;9.68;;;20.00;11.00;;;;;;5026216;28;20207;-89
2022/03/29 09:11:16;;;;;;;13.88;10.38;;;20.40;11.20;;;;;;5023997;28;20231;-89
2022/03/29 09:13:45;;;;;;;13.63;10.60;;;20.40;11.20;;;;;;5021314;28;20235;-90
2022/03/29 09:19:16;;;;;;;14.80;10.93;;;20.90;11.20;;;;;;5116295;27;20791;-87
2022/03/29 09:21:45;;;;;;;15.18;10.77;;;21.70;9.80;;;;;;5055412;28;20197;-88
2022/03/29 09:24:14;;;;;;;16.17;10.20;;;21.60;9.10;;;;;;5063999;28;20314;-90
2022/03/29 09:26:44;;;;;;;17.38;10.20;;;20.60;11.30;;;;;;5074133;28;20220;-90
2022/03/29 09:43:43;;;;;;;12.85;9.70;;;19.10;11.20;;;;;;5050677;28;20186;-91
2022/03/29 09:46:14;;;;;;;16.70;10.68;;;19.10;11.70;;;;;;5053385;28;20222;-89
2022/03/29 09:56:34;;;;;;;13.95;10.30;;;19.90;10.90;;;;;;4970623;28;20671;-89
2022/03/29 10:10:43;;;;;;;16.50;11.15;;;19.90;11.00;;;;;;5058582;28;20218;-89
2022/03/29 10:13:13;;;;;;;14.75;10.98;;;20.10;11.00;;;;;;5060970;28;20273;-89
2022/03/29 12:31:31;;;;;;;;;;;;;;;;;;;;;
2022/03/29 15:15:46;;;;;;;13.65;7.30;;;18.20;9.80;;;;;;5005977;28;20220;-89
2022/03/29 15:32:02;;;;;;;13.15;7.30;;;17.90;10.60;;;;;;4969233;29;20261;-86
2022/03/29 15:41:44;;;;;;;15.93;8.15;;;17.80;12.40;;;;;;4957903;29;20322;-89
2022/03/29 16:24:03;;;;;;;16.25;8.85;;;16.60;13.80;;;;;;4836496;29;20329;-88
2022/03/29 17:24:47;;;;;;;12.85;7.82;;;15.00;15.80;;;;;;4990187;28;20203;-88
2022/03/29 17:54:44;;;;;;;14.85;7.03;;;14.30;18.00;;;;;;5057378;28;20290;-90
2022/03/29 19:23:32;;;;;;;19.63;8.52;;;14.60;17.90;;;;;;4981617;28;20210;-87
2022/03/29 19:33:06;;;;;;;24.75;8.00;;;14.50;18.50;;;;;;4999544;28;20208;-87
2022/03/29 20:23:24;;;;;;;25.98;8.80;;;14.10;19.90;;;;;;5027518;28;20213;-88
2022/03/29 20:29:20;;;;;;;28.50;7.28;;;14.00;20.60;;;;;;5038186;28;20209;-87
2022/03/29 20:42:09;;;;;;;27.20;8.15;;;13.80;20.70;;;;;;4977530;28;20225;-87
2022/03/29 20:44:38;;;;;;;38.53;8.60;;;13.80;21.20;;;;;;4994821;28;20207;-88
2022/03/29 21:07:51;;;;;;;36.75;8.20;;;13.90;21.10;;;;;;4871180;29;20244;-86
2022/03/29 21:10:53;;;;;;;;;;;;;;;;;;;;;
2022/03/29 21:24:26;;;;;;;33.53;8.85;;;13.40;22.10;;;;;;4882089;29;20222;-87
2022/03/29 21:26:55;;;;;;;36.75;11.55;;;13.40;22.80;;;;;;4918694;28;20240;-88
2022/03/29 21:32:28;;;;;;;35.20;7.68;;;13.30;22.70;;;;;;4973302;28;20286;-88
2022/03/29 21:34:55;;;;;;;30.38;7.60;;;13.40;22.80;;;;;;4967239;28;20236;-87
2022/03/29 21:41:00;;;;;;;25.25;7.78;;;13.40;23.50;;;;;;5031544;28;20272;-87
2022/03/29 21:47:11;;;;;;;28.73;8.13;;;13.50;23.20;;;;;;5004494;28;20211;-88
2022/03/29 21:49:39;;;;;;;33.33;7.93;;;13.50;23.60;;;;;;4998860;28;20244;-87
2022/03/29 21:52:06;;;;;;;34.78;8.25;;;13.60;23.40;;;;;;5037066;28;20205;-87
2022/03/29 21:54:37;;;;;;;28.75;7.47;;;13.60;23.80;;;;;;5043254;28;20286;-87
2022/03/29 21:57:05;;;;;;;28.83;9.07;;;13.50;23.90;;;;;;5044860;28;20293;-87
2022/03/29 21:59:35;;;;;;;34.63;7.53;;;13.50;23.80;;;;;;5035894;28;20260;-88
2022/03/29 22:02:02;;;;;;;43.30;8.75;;;13.40;24.10;;;;;;5047257;28;20226;-87
2022/03/29 22:04:46;;;;;;;36.20;7.60;;;13.40;24.50;;;;;;5028968;28;20233;-87
2022/03/29 22:07:14;;;;;;;35.33;8.32;;;13.40;24.90;;;;;;5018649;28;20203;-87
2022/03/29 22:09:42;;;;;;;27.27;7.10;;;13.40;25.30;;;;;;5042686;28;20226;-86
2022/03/29 22:12:11;;;;;;;36.95;7.45;;;13.30;25.50;;;;;;5045768;28;20242;-87
2022/03/29 22:14:39;;;;;;;30.13;8.10;;;13.30;25.60;;;;;;5043556;28;20685;-88
2022/03/29 22:17:06;;;;;;;26.10;8.20;;;13.20;25.50;;;;;;5033798;28;20258;-86
2022/03/29 22:19:36;;;;;;;32.33;7.20;;;13.20;26.10;;;;;;5043115;28;20233;-88
2022/03/29 22:22:05;;;;;;;27.65;7.32;;;13.10;26.20;;;;;;5044610;28;20261;-87
2022/03/29 22:24:45;;;;;;;32.95;9.13;;;13.10;26.30;;;;;;5042650;28;20261;-87
2022/03/29 22:27:13;;;;;;;31.70;6.80;;;13.10;26.30;;;;;;5043176;28;20198;-86
2022/03/29 22:29:40;;;;;;;31.70;7.88;;;13.00;26.10;;;;;;5045247;28;20260;-88
2022/03/29 22:32:43;;;;;;;34.17;8.27;;;13.10;26.20;;;;;;5039424;28;20203;-86
2022/03/29 22:42:04;;;;;;;30.73;7.85;;;13.10;26.20;;;;;;4960562;28;20309;-89
2022/03/29 22:48:48;;;;;;;29.25;7.20;;;13.10;26.30;;;;;;5042900;28;20195;-87
2022/03/29 23:02:41;;;;;;;30.13;7.22;;;13.00;27.30;;;;;;4925174;28;20224;-87
2022/03/29 23:05:56;;;;;;;34.33;7.47;;;13.00;26.10;;;;;;5042631;28;20222;-87
2022/03/29 23:08:24;;;;;;;26.25;7.10;;;13.00;26.40;;;;;;5024973;28;20238;-87
2022/03/29 23:10:51;;;;;;;31.85;7.50;;;12.80;27.40;;;;;;5044716;28;20313;-86
2022/03/29 23:13:18;;;;;;;29.77;7.60;;;12.80;28.20;;;;;;5032882;28;20212;-87
2022/03/29 23:15:46;;;;;;;23.38;7.22;;;12.80;27.90;;;;;;5043304;28;20294;-87
2022/03/29 23:18:14;;;;;;;22.95;6.90;;;12.70;28.50;;;;;;5043016;28;20554;-87
2022/03/29 23:20:43;;;;;;;30.85;7.57;;;12.60;28.70;;;;;;5042775;28;20231;-87
2022/03/29 23:23:11;;;;;;;32.15;7.72;;;12.50;29.30;;;;;;5038243;28;20198;-89
2022/03/29 23:25:39;;;;;;;21.95;8.90;;;12.40;29.60;;;;;;5038337;28;20284;-87
2022/03/29 23:28:06;;;;;;;25.40;7.88;;;12.40;30.20;;;;;;5054874;28;20214;-87
2022/03/29 23:30:34;;;;;;;23.00;7.80;;;12.30;30.90;;;;;;5043560;28;20667;-87
2022/03/29 23:33:01;;;;;;;25.13;7.32;;;12.30;31.10;;;;;;5043339;28;20230;-88
2022/03/29 23:35:40;;;;;;;26.85;7.63;;;12.20;30.80;;;;;;5038486;28;20234;-88
2022/03/29 23:38:07;;;;;;;26.50;7.90;;;12.20;31.50;;;;;;5046364;28;20233;-87
2022/03/29 23:40:35;;;;;;;26.83;7.63;;;12.20;31.40;;;;;;5043031;28;20222;-87
2022/03/29 23:43:02;;;;;;;27.75;7.57;;;12.20;31.20;;;;;;5016656;28;20294;-86
2022/03/29 23:45:29;;;;;;;30.98;8.57;;;12.30;31.20;;;;;;5040391;28;20222;-87
2022/03/29 23:47:58;;;;;;;27.58;7.75;;;12.30;31.90;;;;;;5043298;28;20199;-87
2022/03/29 23:50:25;;;;;;;18.02;7.55;;;12.20;31.90;;;;;;5040343;28;20290;-87
2022/03/29 23:56:13;;;;;;;29.60;7.68;;;12.30;34.10;;;;;;5041473;28;20234;-87
2022/03/29 23:58:44;;;;;;;20.23;6.53;;;12.30;33.00;;;;;;5038379;28;20293;-86
